Terminal Aerodrome Forecast
Issued by NWS Wilmington, NC

Home | Current Version | Previous Version | Text Only | Print | Product List | Glossary On
Versions: 1 2 3 4 5 6 7 8 9 10 11 12 13
000
FTUS42 KILM 011100
TAFLBT
TAF
KLBT 011120Z 0112/0212 VRB03KT P6SM BKN100
     FM011400 20007KT P6SM SCT040 BKN150
     FM020400 19011G20KT P6SM VCSH BKN030 OVC050
     FM020700 21015G25KT 4SM -RA BR SCT007 OVC015=

USA.gov is the U.S. government's official web portal to all federal, state and local government web resources and services.